Time;durP1;ratioP1;P1;durP2;ratioP2;P2;SDS_P1;SDS_P2;PMS_P1;PMS_P2;Temp;Humidity;BMP_temperature;BMP_pressure;BME280_temperature;BME280_humidity;BME280_pressure;Samples;Min_cycle;Max_cycle;Signal;HPM_P1;HPM_P2
2022/11/25 00:01:47;;;;;;;;;;;16.90;52.90;;;;;;5154095;27;20263;-69
2022/11/25 00:04:12;;;;;;;;;;;16.90;52.90;;;;;;5135967;27;19926;-69
2022/11/25 00:06:38;;;;;;;;;;;16.90;52.90;;;;;;5154495;27;19919;-69
2022/11/25 00:09:06;;;;;;;;;;;16.90;52.90;;;;;;5136184;27;19967;-69
2022/11/25 00:11:34;;;;;;;;;;;16.90;52.90;;;;;;5135915;27;20488;-69
2022/11/25 00:13:59;;;;;;;;;;;16.90;52.90;;;;;;5154546;27;19919;-69
2022/11/25 00:16:25;;;;;;;;;;;16.90;52.90;;;;;;5136198;27;20058;-69
2022/11/25 00:18:51;;;;;;;;;;;16.90;53.00;;;;;;5136306;27;20415;-69
2022/11/25 00:21:18;;;;;;;;;;;16.80;52.90;;;;;;5135796;27;19926;-69
2022/11/25 00:23:48;;;;;;;;;;;16.80;52.90;;;;;;5154318;27;19923;-69
2022/11/25 00:26:15;;;;;;;;;;;16.80;53.00;;;;;;5154353;27;19929;-69
2022/11/25 00:28:41;;;;;;;;;;;16.80;52.90;;;;;;5154229;27;20022;-69
2022/11/25 00:31:07;;;;;;;;;;;16.80;53.00;;;;;;5135887;27;20278;-69
2022/11/25 00:33:33;;;;;;;;;;;16.80;52.90;;;;;;5135930;27;20264;-69
2022/11/25 00:35:59;;;;;;;;;;;16.80;53.00;;;;;;5135793;27;19967;-69
2022/11/25 00:38:25;;;;;;;;;;;16.80;53.00;;;;;;5135531;27;19971;-69
2022/11/25 00:44:34;;;;;;;;;;;16.80;53.00;;;;;;5135799;27;19923;-69
2022/11/25 00:46:22;;;;;;;;;;;16.80;53.00;;;;;;5135223;27;19923;-69
2022/11/25 00:48:48;;;;;;;;;;;16.80;53.00;;;;;;5135078;27;19982;-69
2022/11/25 00:51:13;;;;;;;;;;;16.80;53.00;;;;;;5135515;27;20366;-69
2022/11/25 00:53:39;;;;;;;;;;;16.80;53.00;;;;;;5135286;27;19919;-69
2022/11/25 00:56:12;;;;;;;;;;;16.80;53.00;;;;;;5153905;27;19919;-69
2022/11/25 00:58:37;;;;;;;;;;;16.70;53.00;;;;;;5135496;27;19919;-69
2022/11/25 01:01:03;;;;;;;;;;;16.70;53.00;;;;;;5135251;27;19919;-69
2022/11/25 01:03:29;;;;;;;;;;;16.70;53.00;;;;;;5153846;27;19919;-69
2022/11/25 01:05:54;;;;;;;;;;;16.70;53.00;;;;;;5153163;27;19919;-69
2022/11/25 01:08:20;;;;;;;;;;;16.70;53.10;;;;;;5135733;27;20294;-69
2022/11/25 01:10:45;;;;;;;;;;;16.70;53.10;;;;;;5139413;27;19919;-69
2022/11/25 01:13:11;;;;;;;;;;;16.70;53.10;;;;;;5139717;27;19919;-69
2022/11/25 01:15:36;;;;;;;;;;;16.70;53.10;;;;;;5139650;27;19926;-69
2022/11/25 01:18:02;;;;;;;;;;;16.60;53.10;;;;;;5139284;27;20306;-69
2022/11/25 01:20:27;;;;;;;;;;;16.70;53.10;;;;;;5157793;27;19973;-69
2022/11/25 01:22:53;;;;;;;;;;;16.60;53.10;;;;;;5157720;27;19926;-69
2022/11/25 01:25:18;;;;;;;;;;;16.70;53.10;;;;;;5139469;27;19942;-69
2022/11/25 01:27:44;;;;;;;;;;;16.60;53.00;;;;;;5157587;27;20382;-69
2022/11/25 01:30:10;;;;;;;;;;;16.60;53.10;;;;;;5139247;27;20018;-69
2022/11/25 01:32:35;;;;;;;;;;;16.60;53.10;;;;;;5138994;27;19926;-69
2022/11/25 01:35:01;;;;;;;;;;;16.70;53.20;;;;;;5138902;27;19919;-69
2022/11/25 01:37:26;;;;;;;;;;;16.60;53.10;;;;;;5139224;27;20055;-69
2022/11/25 01:39:52;;;;;;;;;;;16.60;53.10;;;;;;5138987;27;19972;-69
2022/11/25 01:42:18;;;;;;;;;;;16.60;53.10;;;;;;5157532;27;20010;-69
2022/11/25 01:45:03;;;;;;;;;;;16.60;53.20;;;;;;5157394;27;19919;-69
2022/11/25 01:47:29;;;;;;;;;;;16.60;53.20;;;;;;5156522;27;19923;-69
2022/11/25 01:50:01;;;;;;;;;;;16.60;53.20;;;;;;5138649;27;19919;-69
2022/11/25 01:52:28;;;;;;;;;;;16.60;53.20;;;;;;5138613;27;19926;-69
2022/11/25 01:54:57;;;;;;;;;;;16.60;53.20;;;;;;5138856;27;19930;-69
2022/11/25 01:57:26;;;;;;;;;;;16.60;53.20;;;;;;5138636;27;19926;-69
2022/11/25 01:59:54;;;;;;;;;;;16.50;53.10;;;;;;5138523;27;19950;-69
2022/11/25 02:02:20;;;;;;;;;;;16.60;53.20;;;;;;5138713;27;20010;-69
2022/11/25 02:04:46;;;;;;;;;;;16.60;53.20;;;;;;5137752;27;20002;-69
2022/11/25 02:07:17;;;;;;;;;;;16.60;53.20;;;;;;5138521;27;19923;-69
2022/11/25 02:09:44;;;;;;;;;;;16.70;53.00;;;;;;5156999;27;19958;-69
2022/11/25 02:12:10;;;;;;;;;;;17.00;52.50;;;;;;5138263;27;20393;-69
2022/11/25 02:14:36;;;;;;;;;;;17.50;51.70;;;;;;5138159;27;19919;-69
2022/11/25 02:17:01;;;;;;;;;;;17.80;50.80;;;;;;5138714;27;19919;-69
2022/11/25 02:19:37;;;;;;;;;;;18.20;50.10;;;;;;5137924;27;19926;-70
2022/11/25 02:22:05;;;;;;;;;;;18.60;49.20;;;;;;5156609;27;19919;-69
2022/11/25 02:24:36;;;;;;;;;;;19.20;47.90;;;;;;5156589;27;19926;-69
2022/11/25 02:27:02;;;;;;;;;;;19.80;46.60;;;;;;5156467;27;19967;-69
2022/11/25 02:29:27;;;;;;;;;;;20.30;46.20;;;;;;5138256;27;19926;-69
2022/11/25 02:31:53;;;;;;;;;;;20.80;44.50;;;;;;5138237;27;19923;-69
2022/11/25 02:34:19;;;;;;;;;;;21.00;43.90;;;;;;5156294;27;19920;-69
2022/11/25 02:36:44;;;;;;;;;;;21.20;43.40;;;;;;5137948;27;19923;-69
2022/11/25 02:39:10;;;;;;;;;;;21.20;43.20;;;;;;5156280;27;19919;-69
2022/11/25 02:41:37;;;;;;;;;;;21.30;43.20;;;;;;5138005;27;19919;-70
2022/11/25 02:44:03;;;;;;;;;;;21.10;43.30;;;;;;5137204;27;19919;-70
2022/11/25 02:46:29;;;;;;;;;;;21.00;43.50;;;;;;5137383;27;20339;-70
2022/11/25 02:48:56;;;;;;;;;;;20.80;43.70;;;;;;5133699;27;19924;-70
2022/11/25 02:51:22;;;;;;;;;;;20.70;44.00;;;;;;5135290;27;20036;-70
2022/11/25 02:53:48;;;;;;;;;;;20.50;44.40;;;;;;5135340;27;19926;-69
2022/11/25 02:56:14;;;;;;;;;;;20.30;44.50;;;;;;5134268;27;20018;-69
2022/11/25 02:58:41;;;;;;;;;;;20.20;44.90;;;;;;5135214;27;19919;-70
2022/11/25 03:01:07;;;;;;;;;;;20.00;45.20;;;;;;5135118;27;20259;-70
2022/11/25 03:03:32;;;;;;;;;;;19.80;45.40;;;;;;5134191;27;20006;-70
2022/11/25 03:05:58;;;;;;;;;;;19.70;45.80;;;;;;5133787;27;20361;-70
2022/11/25 03:08:24;;;;;;;;;;;19.60;46.00;;;;;;5133771;27;19951;-69
2022/11/25 03:10:49;;;;;;;;;;;19.40;46.40;;;;;;5134990;27;20368;-69
2022/11/25 03:13:15;;;;;;;;;;;19.30;46.60;;;;;;5134946;27;19919;-70
2022/11/25 03:15:40;;;;;;;;;;;19.20;46.90;;;;;;5134841;27;20316;-70
2022/11/25 03:18:06;;;;;;;;;;;19.10;47.20;;;;;;5133831;27;20527;-70
2022/11/25 03:20:32;;;;;;;;;;;18.90;47.30;;;;;;5134993;27;19920;-70
2022/11/25 03:22:57;;;;;;;;;;;18.80;47.60;;;;;;5133768;27;19919;-70
2022/11/25 03:25:23;;;;;;;;;;;18.70;47.90;;;;;;5134740;27;20366;-70
2022/11/25 03:27:49;;;;;;;;;;;18.60;48.10;;;;;;5133310;27;19930;-70
2022/11/25 03:30:16;;;;;;;;;;;18.50;48.40;;;;;;5134684;27;19923;-69
2022/11/25 03:32:41;;;;;;;;;;;18.40;48.70;;;;;;5133657;27;19974;-69
2022/11/25 03:35:07;;;;;;;;;;;18.30;48.90;;;;;;5133561;27;19919;-69
2022/11/25 03:37:33;;;;;;;;;;;18.20;49.20;;;;;;5133134;27;20438;-69
2022/11/25 03:39:58;;;;;;;;;;;18.00;49.30;;;;;;5133157;27;19925;-69
2022/11/25 03:42:24;;;;;;;;;;;17.90;49.60;;;;;;5133114;27;19964;-69
2022/11/25 03:44:49;;;;;;;;;;;17.90;49.80;;;;;;5133116;27;19923;-69
2022/11/25 03:47:15;;;;;;;;;;;17.80;49.90;;;;;;5133063;27;19976;-69
2022/11/25 03:49:40;;;;;;;;;;;17.80;50.10;;;;;;5132849;27;19968;-69
2022/11/25 03:52:06;;;;;;;;;;;17.90;50.20;;;;;;5134127;27;19919;-69
2022/11/25 03:54:31;;;;;;;;;;;18.00;49.90;;;;;;5134346;27;20366;-69
2022/11/25 03:56:57;;;;;;;;;;;18.20;49.60;;;;;;5133089;27;20289;-69
2022/11/25 03:59:22;;;;;;;;;;;18.40;49.20;;;;;;5134056;27;19919;-69
2022/11/25 04:01:48;;;;;;;;;;;18.60;48.80;;;;;;5132693;27;19919;-69
2022/11/25 04:04:13;;;;;;;;;;;18.70;48.30;;;;;;5132668;27;19963;-69
2022/11/25 04:06:39;;;;;;;;;;;18.90;48.00;;;;;;5134108;27;19919;-69
2022/11/25 04:09:05;;;;;;;;;;;19.00;47.70;;;;;;5132557;27;20370;-69
2022/11/25 04:14:16;;;;;;;;;;;19.20;47.00;;;;;;5133627;27;19984;-69
2022/11/25 04:16:42;;;;;;;;;;;19.30;46.80;;;;;;5133731;27;20374;-69
2022/11/25 04:19:07;;;;;;;;;;;19.40;46.70;;;;;;5133219;27;19972;-69
2022/11/25 04:21:33;;;;;;;;;;;19.40;46.60;;;;;;5133753;27;19927;-69
2022/11/25 04:23:58;;;;;;;;;;;19.30;46.60;;;;;;5132601;27;19924;-70
2022/11/25 04:26:24;;;;;;;;;;;19.30;47.40;;;;;;5132383;27;20382;-69
2022/11/25 04:28:49;;;;;;;;;;;19.20;46.70;;;;;;5133482;27;20019;-70
2022/11/25 04:31:15;;;;;;;;;;;19.10;46.90;;;;;;5132532;27;20386;-69
2022/11/25 04:33:40;;;;;;;;;;;19.00;47.00;;;;;;5133804;27;19923;-70
2022/11/25 04:36:06;;;;;;;;;;;18.90;47.20;;;;;;5132193;27;19920;-69
2022/11/25 04:38:32;;;;;;;;;;;18.80;47.40;;;;;;5133690;27;19926;-69
2022/11/25 04:40:57;;;;;;;;;;;18.70;47.60;;;;;;5132147;27;20014;-69
2022/11/25 04:43:23;;;;;;;;;;;18.70;47.90;;;;;;5131938;27;19927;-69
2022/11/25 04:45:48;;;;;;;;;;;18.50;48.00;;;;;;5132399;27;19919;-69
2022/11/25 04:48:14;;;;;;;;;;;18.50;48.30;;;;;;5131552;27;19927;-69
2022/11/25 04:50:39;;;;;;;;;;;18.40;48.40;;;;;;5132085;28;19920;-69
2022/11/25 04:53:05;;;;;;;;;;;18.30;48.60;;;;;;5132346;28;19962;-69
2022/11/25 04:55:30;;;;;;;;;;;18.20;48.90;;;;;;5131916;28;19926;-69
2022/11/25 04:57:56;;;;;;;;;;;18.10;49.00;;;;;;5133333;27;19919;-69
2022/11/25 05:00:22;;;;;;;;;;;18.00;49.30;;;;;;5131918;28;20382;-69
2022/11/25 05:02:47;;;;;;;;;;;17.90;49.40;;;;;;5133211;27;19919;-69
2022/11/25 05:05:13;;;;;;;;;;;18.00;49.60;;;;;;5133151;27;19919;-69
2022/11/25 05:07:39;;;;;;;;;;;17.90;49.60;;;;;;5133346;27;20392;-69
2022/11/25 05:10:05;;;;;;;;;;;18.00;49.60;;;;;;5133105;27;19920;-69
2022/11/25 05:12:31;;;;;;;;;;;18.00;49.50;;;;;;5133225;27;19926;-69
2022/11/25 05:14:56;;;;;;;;;;;18.10;49.40;;;;;;5133127;27;20013;-69
2022/11/25 05:17:23;;;;;;;;;;;18.30;49.20;;;;;;5133145;27;19920;-69
2022/11/25 05:19:49;;;;;;;;;;;18.40;49.00;;;;;;5132078;28;19942;-69
2022/11/25 05:22:16;;;;;;;;;;;18.50;48.70;;;;;;5133031;27;20370;-69
2022/11/25 05:24:42;;;;;;;;;;;18.60;48.30;;;;;;5132021;28;20479;-69
2022/11/25 05:27:08;;;;;;;;;;;18.70;48.00;;;;;;5132001;28;19958;-69
2022/11/25 05:29:34;;;;;;;;;;;18.80;47.90;;;;;;5132023;28;20503;-69
2022/11/25 05:31:59;;;;;;;;;;;18.90;47.70;;;;;;5133510;27;19919;-69
2022/11/25 05:34:25;;;;;;;;;;;19.00;47.50;;;;;;5131533;28;19920;-69
2022/11/25 05:36:51;;;;;;;;;;;19.10;47.30;;;;;;5131935;28;19920;-68
2022/11/25 05:39:16;;;;;;;;;;;19.10;47.20;;;;;;5131895;28;19920;-68
2022/11/25 05:41:42;;;;;;;;;;;19.10;47.10;;;;;;5132814;27;19981;-69
2022/11/25 05:44:07;;;;;;;;;;;19.20;47.10;;;;;;5131638;28;19920;-69
2022/11/25 05:46:33;;;;;;;;;;;19.10;47.00;;;;;;5131991;28;19923;-69
2022/11/25 05:48:58;;;;;;;;;;;19.00;47.10;;;;;;5145101;27;20393;-69
2022/11/25 05:51:24;;;;;;;;;;;19.00;47.30;;;;;;5153559;27;20340;-69
2022/11/25 05:53:50;;;;;;;;;;;19.00;47.40;;;;;;5153644;27;20408;-69
2022/11/25 05:56:16;;;;;;;;;;;18.80;47.50;;;;;;5138112;27;19946;-69
2022/11/25 05:58:41;;;;;;;;;;;18.70;47.60;;;;;;5157273;27;19971;-69
2022/11/25 06:01:08;;;;;;;;;;;18.60;47.90;;;;;;5138758;27;20278;-69
2022/11/25 06:03:33;;;;;;;;;;;18.60;48.00;;;;;;5138584;27;20417;-69
2022/11/25 06:05:59;;;;;;;;;;;18.50;48.20;;;;;;5138656;27;20056;-69
2022/11/25 06:08:25;;;;;;;;;;;18.40;48.40;;;;;;5157085;27;19923;-69
2022/11/25 06:10:51;;;;;;;;;;;18.20;48.50;;;;;;5156863;27;19919;-69
2022/11/25 06:13:16;;;;;;;;;;;18.20;48.70;;;;;;5156978;27;19919;-69
2022/11/25 06:15:43;;;;;;;;;;;18.30;49.00;;;;;;5138660;27;19919;-69
2022/11/25 06:18:09;;;;;;;;;;;18.10;49.10;;;;;;5156048;27;19959;-70
2022/11/25 06:20:35;;;;;;;;;;;18.10;49.20;;;;;;5138511;27;19963;-69
2022/11/25 06:23:01;;;;;;;;;;;18.00;49.40;;;;;;5137730;27;19970;-70
2022/11/25 06:25:26;;;;;;;;;;;18.00;49.50;;;;;;5145974;27;19919;-71
2022/11/25 06:27:52;;;;;;;;;;;18.30;50.10;;;;;;5155312;27;20382;-71
2022/11/25 06:30:18;;;;;;;;;;;19.00;49.50;;;;;;5155361;27;20010;-71
2022/11/25 06:32:43;;;;;;;;;;;19.70;48.40;;;;;;5140884;27;20437;-72
2022/11/25 06:35:09;;;;;;;;;;;20.50;47.20;;;;;;5154553;27;19929;-66
2022/11/25 06:37:35;;;;;;;;;;;21.10;46.10;;;;;;5170385;27;19923;-66
2022/11/25 06:40:01;;;;;;;;;;;21.60;45.10;;;;;;5155670;27;19919;-67
2022/11/25 06:42:27;;;;;;;;;;;22.20;44.40;;;;;;5157440;27;19923;-70
2022/11/25 06:44:52;;;;;;;;;;;22.60;43.70;;;;;;5137588;27;19978;-70
2022/11/25 06:47:18;;;;;;;;;;;23.00;43.20;;;;;;5137295;27;19978;-69
2022/11/25 06:49:43;;;;;;;;;;;23.20;42.80;;;;;;5156396;27;20434;-69
2022/11/25 06:52:09;;;;;;;;;;;23.40;42.40;;;;;;5155684;27;19923;-71
2022/11/25 06:54:39;;;;;;;;;;;23.60;42.20;;;;;;5142486;27;19919;-70
2022/11/25 06:57:06;;;;;;;;;;;23.60;41.90;;;;;;5139160;27;19946;-69
2022/11/25 06:59:31;;;;;;;;;;;23.70;41.70;;;;;;5139887;27;19926;-69
2022/11/25 07:01:57;;;;;;;;;;;23.70;41.60;;;;;;5153587;27;19918;-70
2022/11/25 07:04:22;;;;;;;;;;;23.70;41.60;;;;;;5173499;27;19918;-70
2022/11/25 07:06:48;;;;;;;;;;;23.70;41.70;;;;;;5147965;27;20125;-69
2022/11/25 07:09:13;;;;;;;;;;;24.10;42.00;;;;;;5142951;27;19966;-70
2022/11/25 07:11:39;;;;;;;;;;;23.80;41.70;;;;;;5127042;27;19930;-72
2022/11/25 07:14:06;;;;;;;;;;;23.70;41.60;;;;;;5137755;27;19923;-68
2022/11/25 07:16:32;;;;;;;;;;;23.80;41.70;;;;;;5137962;27;19930;-71
2022/11/25 07:19:00;;;;;;;;;;;23.80;41.70;;;;;;5138646;27;20314;-71
2022/11/25 07:21:26;;;;;;;;;;;23.80;41.50;;;;;;5134461;27;19930;-67
2022/11/25 07:23:52;;;;;;;;;;;23.90;41.50;;;;;;5135394;27;20326;-68
2022/11/25 07:26:20;;;;;;;;;;;23.90;41.30;;;;;;5136894;27;19922;-69
2022/11/25 07:28:46;;;;;;;;;;;23.90;41.10;;;;;;5146874;27;19954;-70
2022/11/25 07:31:15;;;;;;;;;;;23.80;41.40;;;;;;5150361;27;20361;-70
2022/11/25 07:33:41;;;;;;;;;;;23.80;41.50;;;;;;5155152;27;19922;-69
2022/11/25 07:36:08;;;;;;;;;;;24.00;41.40;;;;;;5157503;27;19978;-64
2022/11/25 07:38:34;;;;;;;;;;;24.40;40.70;;;;;;5141532;27;20501;-70
2022/11/25 07:41:04;;;;;;;;;;;24.30;40.60;;;;;;5131236;27;19922;-70
2022/11/25 07:43:29;;;;;;;;;;;24.00;40.80;;;;;;5152969;27;19919;-70
2022/11/25 07:45:55;;;;;;;;;;;23.70;41.60;;;;;;5133746;27;19919;-69
2022/11/25 07:48:21;;;;;;;;;;;23.40;42.00;;;;;;5130937;27;19927;-69
2022/11/25 07:50:48;;;;;;;;;;;23.30;42.50;;;;;;5137005;27;20010;-69
2022/11/25 07:53:14;;;;;;;;;;;23.30;42.50;;;;;;5145595;27;19930;-69
2022/11/25 07:55:40;;;;;;;;;;;23.50;42.40;;;;;;5155916;27;19923;-69
2022/11/25 07:58:05;;;;;;;;;;;23.50;42.10;;;;;;5146009;27;19933;-70
2022/11/25 08:00:31;;;;;;;;;;;23.70;41.90;;;;;;5154295;27;19918;-70
2022/11/25 08:02:56;;;;;;;;;;;23.70;41.70;;;;;;5136117;27;20349;-70
2022/11/25 08:05:22;;;;;;;;;;;23.70;41.60;;;;;;5139798;27;20396;-70
2022/11/25 08:07:47;;;;;;;;;;;23.70;41.50;;;;;;5137691;27;19923;-70
2022/11/25 08:10:13;;;;;;;;;;;23.60;41.40;;;;;;5141973;27;19925;-70
2022/11/25 08:12:38;;;;;;;;;;;23.60;41.40;;;;;;5139843;27;19923;-71
2022/11/25 08:15:04;;;;;;;;;;;23.60;41.40;;;;;;5143098;27;19927;-71
2022/11/25 08:17:30;;;;;;;;;;;23.50;41.50;;;;;;5141054;27;19922;-70
2022/11/25 08:19:55;;;;;;;;;;;23.50;41.60;;;;;;5153646;27;20013;-70
2022/11/25 08:22:21;;;;;;;;;;;23.40;41.70;;;;;;5138328;27;20496;-70
2022/11/25 08:24:46;;;;;;;;;;;23.30;41.70;;;;;;5154083;27;20530;-69
2022/11/25 08:27:12;;;;;;;;;;;23.20;41.80;;;;;;5152104;27;19937;-68
2022/11/25 08:29:37;;;;;;;;;;;23.20;41.90;;;;;;5150103;27;19946;-68
2022/11/25 08:32:03;;;;;;;;;;;23.10;42.10;;;;;;5133355;27;20633;-68
2022/11/25 08:34:28;;;;;;;;;;;23.10;42.00;;;;;;5133505;27;19954;-71
2022/11/25 08:36:54;;;;;;;;;;;23.10;42.00;;;;;;5154160;27;20025;-69
2022/11/25 08:39:20;;;;;;;;;;;23.10;42.10;;;;;;5150284;27;20317;-71
2022/11/25 08:41:46;;;;;;;;;;;23.00;42.10;;;;;;5138393;27;20123;-74
2022/11/25 08:44:12;;;;;;;;;;;23.00;42.10;;;;;;5136855;27;19919;-70
2022/11/25 08:46:38;;;;;;;;;;;23.00;42.00;;;;;;5149476;27;19934;-68
2022/11/25 08:49:05;;;;;;;;;;;23.00;42.10;;;;;;5147790;27;19927;-70
2022/11/25 08:51:31;;;;;;;;;;;23.00;42.00;;;;;;5133468;27;20351;-69
2022/11/25 08:53:57;;;;;;;;;;;23.10;42.00;;;;;;5131906;27;20808;-70
2022/11/25 08:56:23;;;;;;;;;;;23.10;41.90;;;;;;5151788;27;19919;-71
2022/11/25 08:58:49;;;;;;;;;;;23.20;41.90;;;;;;5150210;27;19919;-67
2022/11/25 09:01:15;;;;;;;;;;;23.20;41.90;;;;;;5133937;27;19923;-74
2022/11/25 09:03:43;;;;;;;;;;;23.20;41.90;;;;;;5139635;27;20424;-73
2022/11/25 09:06:08;;;;;;;;;;;23.30;42.00;;;;;;5149728;27;20342;-72
2022/11/25 09:08:34;;;;;;;;;;;23.40;42.00;;;;;;5123595;27;19985;-69
2022/11/25 09:11:00;;;;;;;;;;;23.40;41.90;;;;;;5135212;27;20007;-68
2022/11/25 09:13:26;;;;;;;;;;;23.50;41.90;;;;;;5135584;27;19925;-70
2022/11/25 09:15:55;;;;;;;;;;;23.50;42.00;;;;;;5132282;27;20504;-69
2022/11/25 09:18:24;;;;;;;;;;;23.40;41.90;;;;;;5134290;27;19922;-71
2022/11/25 09:20:51;;;;;;;;;;;23.40;41.90;;;;;;5131824;27;19923;-69
2022/11/25 09:23:18;;;;;;;;;;;23.40;42.80;;;;;;5141187;27;19926;-70
2022/11/25 09:25:52;;;;;;;;;;;23.30;42.20;;;;;;5152454;27;19926;-70
2022/11/25 09:28:19;;;;;;;;;;;23.20;42.40;;;;;;5142715;27;20392;-72
2022/11/25 09:30:44;;;;;;;;;;;23.20;42.70;;;;;;5139811;27;19927;-71
2022/11/25 09:33:10;;;;;;;;;;;23.10;42.90;;;;;;5152146;27;20282;-69
2022/11/25 09:35:35;;;;;;;;;;;23.20;43.10;;;;;;5135959;27;19923;-69
2022/11/25 09:38:01;;;;;;;;;;;23.10;43.50;;;;;;5138552;27;19919;-69
2022/11/25 09:40:39;;;;;;;;;;;22.90;43.90;;;;;;5145696;27;19927;-69
2022/11/25 09:46:40;;;;;;;;;;;22.50;44.80;;;;;;5101029;27;2038211;-68
2022/11/25 09:51:23;;;;;;;;;;;22.20;45.70;;;;;;5087433;27;1903671;-68
2022/11/25 09:53:52;;;;;;;;;;;22.20;45.90;;;;;;5152851;27;19919;-68
2022/11/25 09:59:16;;;;;;;;;;;22.30;46.10;;;;;;5080999;27;1862888;-65
2022/11/25 10:01:46;;;;;;;;;;;22.40;46.10;;;;;;5127648;27;19927;-67
2022/11/25 10:04:16;;;;;;;;;;;22.40;46.10;;;;;;5124457;27;20434;-67
2022/11/25 10:06:47;;;;;;;;;;;22.50;46.00;;;;;;5140773;27;21052;-67
2022/11/25 10:09:14;;;;;;;;;;;22.60;45.90;;;;;;5135510;27;19919;-68
2022/11/25 10:14:39;;;;;;;;;;;22.80;45.60;;;;;;5056899;28;19957;-67
2022/11/25 10:17:10;;;;;;;;;;;22.80;45.60;;;;;;5026187;28;19957;-69
2022/11/25 10:22:20;;;;;;;;;;;23.00;45.40;;;;;;5086319;27;19957;-65
2022/11/25 10:24:46;;;;;;;;;;;23.00;45.30;;;;;;5087715;28;20380;-68
2022/11/25 10:27:16;;;;;;;;;;;23.20;45.40;;;;;;5090520;28;19974;-68
2022/11/25 10:29:43;;;;;;;;;;;23.10;45.40;;;;;;5088500;28;20359;-65
2022/11/25 10:32:19;;;;;;;;;;;23.00;45.40;;;;;;5084806;28;20682;-67
2022/11/25 10:34:47;;;;;;;;;;;23.00;45.50;;;;;;5120438;27;20468;-69
2022/11/25 10:37:17;;;;;;;;;;;23.00;45.70;;;;;;5085482;28;19931;-67
2022/11/25 10:39:42;;;;;;;;;;;22.90;45.80;;;;;;5117727;27;19924;-65
2022/11/25 10:42:13;;;;;;;;;;;22.80;46.10;;;;;;5082518;28;19939;-70
2022/11/25 10:44:40;;;;;;;;;;;22.80;46.30;;;;;;5118888;27;20660;-66
2022/11/25 10:47:26;;;;;;;;;;;22.80;46.40;;;;;;5087414;28;20493;-68
2022/11/25 10:50:11;;;;;;;;;;;22.70;46.40;;;;;;5088697;28;21134;-69
2022/11/25 10:52:45;;;;;;;;;;;22.70;46.50;;;;;;5090603;28;20636;-69
2022/11/25 10:55:12;;;;;;;;;;;22.70;46.60;;;;;;5101163;28;19931;-68
2022/11/25 10:57:38;;;;;;;;;;;22.60;46.70;;;;;;5120384;27;19928;-69
2022/11/25 11:00:05;;;;;;;;;;;22.60;46.90;;;;;;5120409;27;19924;-64
2022/11/25 11:08:06;;;;;;;;;;;22.50;47.20;;;;;;5095268;27;1860293;-66
2022/11/25 11:10:32;;;;;;;;;;;22.50;47.20;;;;;;5145904;27;19923;-66
2022/11/25 11:12:59;;;;;;;;;;;22.50;47.50;;;;;;5144128;27;20062;-66
2022/11/25 11:15:26;;;;;;;;;;;22.40;47.50;;;;;;5149700;27;20601;-66
2022/11/25 11:17:53;;;;;;;;;;;22.40;47.60;;;;;;5141105;27;19930;-67
2022/11/25 11:20:21;;;;;;;;;;;22.40;47.80;;;;;;5142021;27;20058;-66
2022/11/25 11:22:56;;;;;;;;;;;22.40;47.70;;;;;;5142251;27;19930;-67
2022/11/25 11:25:25;;;;;;;;;;;22.60;47.50;;;;;;5156901;27;19974;-67
2022/11/25 11:27:51;;;;;;;;;;;22.60;47.20;;;;;;5143707;27;19915;-67
2022/11/25 11:30:19;;;;;;;;;;;22.60;47.00;;;;;;5158031;27;20380;-67
2022/11/25 11:32:53;;;;;;;;;;;22.60;47.00;;;;;;5148774;27;19919;-67
2022/11/25 11:35:26;;;;;;;;;;;22.50;47.00;;;;;;5128889;27;20381;-67
2022/11/25 11:37:54;;;;;;;;;;;22.40;47.00;;;;;;5164971;27;20048;-67
2022/11/25 11:40:28;;;;;;;;;;;22.30;47.20;;;;;;5151077;27;19922;-67
2022/11/25 11:43:08;;;;;;;;;;;22.20;47.30;;;;;;5147081;27;19923;-66
2022/11/25 11:45:54;;;;;;;;;;;22.20;47.40;;;;;;5149932;27;19923;-67
2022/11/25 11:48:22;;;;;;;;;;;22.20;47.40;;;;;;5131717;27;19923;-71
2022/11/25 11:50:50;;;;;;;;;;;22.20;47.40;;;;;;5132232;27;20021;-67
2022/11/25 11:53:35;;;;;;;;;;;22.40;47.40;;;;;;5152127;27;19930;-68
2022/11/25 11:58:46;;;;;;;;;;;22.90;46.80;;;;;;5082848;27;1871427;-65
2022/11/25 12:04:04;;;;;;;;;;;23.00;46.60;;;;;;5065696;28;19917;-72
2022/11/25 12:06:32;;;;;;;;;;;23.10;46.30;;;;;;5081056;28;19935;-71
2022/11/25 12:09:03;;;;;;;;;;;23.20;46.20;;;;;;5066691;28;19959;-68
2022/11/25 12:11:31;;;;;;;;;;;23.30;46.10;;;;;;5067103;28;19947;-72
2022/11/25 12:14:04;;;;;;;;;;;23.20;46.30;;;;;;5063910;28;19924;-67
2022/11/25 12:16:33;;;;;;;;;;;23.20;46.40;;;;;;5060752;28;19924;-68
2022/11/25 12:19:04;;;;;;;;;;;23.00;46.60;;;;;;5063138;28;20284;-68
2022/11/25 12:24:31;;;;;;;;;;;22.60;47.20;;;;;;5056123;28;19921;-66
2022/11/25 12:27:16;;;;;;;;;;;22.60;47.60;;;;;;5055962;28;20067;-69
2022/11/25 12:29:44;;;;;;;;;;;22.50;47.60;;;;;;5034634;28;20297;-69
2022/11/25 12:40:36;;;;;;;;;;;22.30;48.20;;;;;;5059822;28;19950;-69
2022/11/25 12:43:08;;;;;;;;;;;22.40;48.20;;;;;;5040010;28;19941;-71
2022/11/25 12:45:34;;;;;;;;;;;22.50;48.00;;;;;;5046199;28;19925;-70
2022/11/25 12:47:59;;;;;;;;;;;22.60;47.80;;;;;;5039055;28;19925;-69
2022/11/25 12:55:45;;;;;;;;;;;22.80;47.60;;;;;;5077967;27;19920;-69
2022/11/25 13:01:12;;;;;;;;;;;22.90;47.60;;;;;;5064468;28;19917;-72
2022/11/25 13:03:48;;;;;;;;;;;22.80;47.50;;;;;;5069965;28;20075;-72
2022/11/25 13:09:15;;;;;;;;;;;22.60;47.50;;;;;;5072977;28;19953;-68
2022/11/25 13:12:01;;;;;;;;;;;22.60;47.70;;;;;;5050483;28;20276;-68
2022/11/25 13:17:10;;;;;;;;;;;22.10;48.10;;;;;;5075465;27;19924;-66
2022/11/25 13:19:36;;;;;;;;;;;22.10;48.40;;;;;;5048410;28;19931;-68
2022/11/25 13:22:05;;;;;;;;;;;22.30;48.50;;;;;;5053738;28;20404;-69
2022/11/25 13:24:32;;;;;;;;;;;22.50;48.20;;;;;;5060609;28;19935;-67
2022/11/25 13:27:00;;;;;;;;;;;22.50;47.80;;;;;;5073962;28;20506;-70
2022/11/25 13:32:26;;;;;;;;;;;22.40;48.00;;;;;;5144080;27;19919;-67
2022/11/25 13:35:11;;;;;;;;;;;22.50;48.00;;;;;;5123695;27;20043;-67
2022/11/25 13:37:39;;;;;;;;;;;22.60;48.70;;;;;;5120702;27;20047;-67
2022/11/25 13:42:59;;;;;;;;;;;22.70;47.50;;;;;;5108330;27;1869629;-67
2022/11/25 13:45:26;;;;;;;;;;;22.80;47.30;;;;;;5162142;27;19923;-67
2022/11/25 13:47:53;;;;;;;;;;;22.80;47.10;;;;;;5152245;27;20278;-68
2022/11/25 13:50:23;;;;;;;;;;;22.80;47.00;;;;;;5151990;27;19923;-67
2022/11/25 13:53:06;;;;;;;;;;;22.90;46.90;;;;;;5153336;27;19914;-67
2022/11/25 13:55:33;;;;;;;;;;;22.90;46.70;;;;;;5165671;27;19927;-67
2022/11/25 14:17:18;;;;;;;;;;;22.30;47.60;;;;;;5080976;27;19923;-72
2022/11/25 14:25:26;;;;;;;;;;;22.40;47.50;;;;;;5075074;28;19941;-65
2022/11/25 14:27:57;;;;;;;;;;;22.30;47.50;;;;;;5081351;28;19979;-70
2022/11/25 14:30:24;;;;;;;;;;;22.20;47.70;;;;;;5074832;28;20219;-70
2022/11/25 14:33:08;;;;;;;;;;;22.10;47.90;;;;;;5078939;28;19920;-69
2022/11/25 14:35:36;;;;;;;;;;;22.10;47.90;;;;;;5071083;28;19927;-69
2022/11/25 14:38:03;;;;;;;;;;;22.00;48.00;;;;;;5066531;28;19924;-69
2022/11/25 14:40:33;;;;;;;;;;;22.10;48.10;;;;;;5071800;28;20019;-69
2022/11/25 14:43:03;;;;;;;;;;;22.10;48.10;;;;;;5075277;28;19927;-70
2022/11/25 14:45:30;;;;;;;;;;;22.20;48.10;;;;;;5073976;28;19921;-70
2022/11/25 14:47:56;;;;;;;;;;;22.10;48.00;;;;;;5090069;28;19921;-70
2022/11/25 14:50:22;;;;;;;;;;;22.00;47.80;;;;;;5075115;28;19924;-66
2022/11/25 14:52:48;;;;;;;;;;;22.20;47.80;;;;;;5075261;28;20429;-70
2022/11/25 14:55:23;;;;;;;;;;;22.40;47.60;;;;;;5084864;28;19927;-71
2022/11/25 14:57:49;;;;;;;;;;;22.50;47.30;;;;;;5080959;28;19927;-65
2022/11/25 15:00:15;;;;;;;;;;;22.60;47.60;;;;;;5070794;28;19924;-70
2022/11/25 15:02:51;;;;;;;;;;;22.60;46.60;;;;;;5068916;28;19921;-71
2022/11/25 15:05:17;;;;;;;;;;;22.60;46.40;;;;;;5071458;28;19968;-70
2022/11/25 15:07:51;;;;;;;;;;;22.50;46.30;;;;;;5064022;28;19929;-70
2022/11/25 15:10:37;;;;;;;;;;;22.40;46.50;;;;;;5068694;28;20412;-65
2022/11/25 15:13:08;;;;;;;;;;;22.30;46.70;;;;;;5076012;28;20487;-70
2022/11/25 15:15:34;;;;;;;;;;;22.20;46.90;;;;;;5079858;28;19920;-70
2022/11/25 15:18:03;;;;;;;;;;;22.10;47.10;;;;;;5074862;28;19920;-70
2022/11/25 15:20:33;;;;;;;;;;;22.00;47.30;;;;;;5070869;28;19936;-70
2022/11/25 15:22:59;;;;;;;;;;;21.90;47.50;;;;;;5089069;28;20944;-69
2022/11/25 15:25:24;;;;;;;;;;;21.80;47.70;;;;;;5090830;28;20019;-71
2022/11/25 15:27:51;;;;;;;;;;;21.70;47.80;;;;;;5104090;28;20273;-71
2022/11/25 15:30:24;;;;;;;;;;;21.70;48.00;;;;;;5087394;28;19928;-71
2022/11/25 15:32:51;;;;;;;;;;;21.60;48.10;;;;;;5072333;28;19927;-70
2022/11/25 15:35:18;;;;;;;;;;;21.50;48.30;;;;;;5083481;28;19920;-70
2022/11/25 15:37:44;;;;;;;;;;;21.40;48.30;;;;;;5091730;28;19973;-71
2022/11/25 15:40:29;;;;;;;;;;;21.40;48.60;;;;;;5093437;28;20322;-70
2022/11/25 15:42:56;;;;;;;;;;;21.30;48.60;;;;;;5075228;28;19920;-70
2022/11/25 15:45:21;;;;;;;;;;;21.20;48.80;;;;;;5074405;28;20384;-71